Time;durP1;ratioP1;P1;durP2;ratioP2;P2;SDS_P1;SDS_P2;PMS_P1;PMS_P2;Temp;Humidity;BMP_temperature;BMP_pressure;BME280_temperature;BME280_humidity;BME280_pressure;Samples;Min_cycle;Max_cycle;Signal;HPM_P1;HPM_P2
2021/07/13 00:00:55;;;;;;;5.28;3.03;;;18.50;90.00;;;;;;4966956;28;20039;-72
2021/07/13 00:03:21;;;;;;;4.30;3.15;;;18.50;89.80;;;;;;4968814;28;20041;-72
2021/07/13 00:05:48;;;;;;;4.55;2.88;;;18.50;89.90;;;;;;4966625;28;20113;-73
2021/07/13 00:08:14;;;;;;;6.70;3.10;;;18.50;89.70;;;;;;4968913;28;20109;-71
2021/07/13 00:10:42;;;;;;;5.75;2.72;;;18.50;88.60;;;;;;4965103;28;20101;-73
2021/07/13 00:13:08;;;;;;;6.20;2.80;;;18.50;89.10;;;;;;4968950;28;20019;-72
2021/07/13 00:15:40;;;;;;;3.40;2.75;;;18.40;89.80;;;;;;4948155;28;20505;-73
2021/07/13 00:18:07;;;;;;;5.28;3.13;;;18.40;90.30;;;;;;4966690;28;20035;-72
2021/07/13 00:20:33;;;;;;;5.47;3.38;;;18.40;89.70;;;;;;4968021;28;20061;-72
2021/07/13 00:22:59;;;;;;;5.63;3.35;;;18.50;90.80;;;;;;4951631;28;20122;-72
2021/07/13 00:25:29;;;;;;;5.15;2.97;;;18.30;90.90;;;;;;4966658;28;20054;-72
2021/07/13 00:27:55;;;;;;;7.85;2.97;;;18.40;90.90;;;;;;4967550;28;20069;-73
2021/07/13 00:30:22;;;;;;;5.80;4.15;;;18.30;90.90;;;;;;4950774;28;20214;-72
2021/07/13 00:32:49;;;;;;;4.60;2.90;;;18.30;91.00;;;;;;4966905;28;20090;-72
2021/07/13 00:35:15;;;;;;;4.10;3.13;;;18.40;90.70;;;;;;4968376;28;20065;-72
2021/07/13 00:37:43;;;;;;;3.38;2.83;;;18.40;91.00;;;;;;4968210;28;20035;-73
2021/07/13 00:40:11;;;;;;;4.72;2.78;;;18.30;90.90;;;;;;4968293;28;20520;-71
2021/07/13 00:42:38;;;;;;;3.78;2.53;;;18.40;90.60;;;;;;4950938;28;20033;-72
2021/07/13 00:45:06;;;;;;;3.30;2.58;;;18.40;90.50;;;;;;4967591;28;20041;-73
2021/07/13 00:47:32;;;;;;;4.38;3.20;;;18.40;90.20;;;;;;4952736;28;20050;-73
2021/07/13 00:50:00;;;;;;;4.40;2.95;;;18.30;90.50;;;;;;4965760;28;20482;-69
2021/07/13 00:52:27;;;;;;;5.22;2.80;;;18.20;90.70;;;;;;4966462;28;20035;-72
2021/07/13 00:54:53;;;;;;;3.90;3.08;;;18.20;90.80;;;;;;4967383;28;20446;-72
2021/07/13 00:57:19;;;;;;;4.10;3.10;;;18.20;90.60;;;;;;4952299;28;20046;-72
2021/07/13 00:59:46;;;;;;;5.20;2.78;;;18.20;90.00;;;;;;4955747;28;20031;-72
2021/07/13 01:02:13;;;;;;;4.10;2.58;;;18.20;89.00;;;;;;4969498;28;20113;-73
2021/07/13 01:04:49;;;;;;;4.45;2.70;;;18.30;88.40;;;;;;4970437;28;20088;-72
2021/07/13 01:07:28;;;;;;;5.90;2.63;;;18.30;87.70;;;;;;4968189;28;20034;-72
2021/07/13 01:10:03;;;;;;;5.03;2.95;;;18.40;86.90;;;;;;4963337;28;20089;-72
2021/07/13 01:12:47;;;;;;;7.93;2.70;;;18.40;89.60;;;;;;4966525;28;20026;-72
2021/07/13 01:15:19;;;;;;;4.30;2.65;;;18.40;90.10;;;;;;4967249;28;20548;-72
2021/07/13 01:18:07;;;;;;;3.10;2.78;;;18.40;89.80;;;;;;4950251;28;20027;-72
2021/07/13 01:20:57;;;;;;;3.30;2.80;;;18.40;89.30;;;;;;4965605;28;20097;-72
2021/07/13 01:23:29;;;;;;;3.65;2.75;;;18.30;90.30;;;;;;4949777;28;20035;-72
2021/07/13 01:26:05;;;;;;;4.63;2.53;;;18.30;89.70;;;;;;4949428;28;20027;-72
2021/07/13 01:28:36;;;;;;;4.38;3.10;;;18.30;90.10;;;;;;4968633;28;20469;-72
2021/07/13 01:31:06;;;;;;;3.38;2.88;;;18.20;90.30;;;;;;4951405;28;20038;-73
2021/07/13 01:33:33;;;;;;;3.47;2.53;;;18.30;90.40;;;;;;4971183;28;20114;-72
2021/07/13 01:36:07;;;;;;;7.15;3.13;;;18.30;90.30;;;;;;4969816;28;20461;-72
2021/07/13 01:38:38;;;;;;;3.70;2.83;;;18.30;90.30;;;;;;4971374;28;20405;-72
2021/07/13 01:41:07;;;;;;;4.75;3.25;;;18.10;91.00;;;;;;4969861;28;20493;-70
2021/07/13 01:43:42;;;;;;;4.05;3.00;;;17.80;91.70;;;;;;4971320;28;20134;-73
2021/07/13 01:46:10;;;;;;;3.92;3.28;;;17.70;91.90;;;;;;4969645;28;20018;-72
2021/07/13 01:48:37;;;;;;;5.65;2.70;;;17.70;91.70;;;;;;4954837;28;20081;-72
2021/07/13 01:51:04;;;;;;;3.80;3.10;;;17.70;91.50;;;;;;4954612;28;20387;-72
2021/07/13 01:53:32;;;;;;;5.65;3.50;;;17.80;91.70;;;;;;4955180;28;20067;-72
2021/07/13 01:55:58;;;;;;;3.67;2.87;;;17.80;91.60;;;;;;4972546;28;20027;-73
2021/07/13 01:58:29;;;;;;;3.80;3.20;;;17.90;91.40;;;;;;4955751;28;20042;-72
2021/07/13 02:00:59;;;;;;;5.47;2.50;;;17.90;91.20;;;;;;4972241;28;20030;-72
2021/07/13 02:03:27;;;;;;;5.22;2.40;;;17.90;90.60;;;;;;4973159;28;20031;-72
2021/07/13 02:05:54;;;;;;;5.03;2.97;;;18.00;90.30;;;;;;4970627;28;20565;-72
2021/07/13 02:08:22;;;;;;;4.43;3.17;;;18.00;91.00;;;;;;4971060;28;20045;-72
2021/07/13 02:10:48;;;;;;;4.15;3.00;;;18.10;90.60;;;;;;4953142;28;20033;-72
2021/07/13 02:13:19;;;;;;;4.40;2.90;;;18.10;90.60;;;;;;4951445;28;20034;-72
2021/07/13 02:15:45;;;;;;;5.50;3.17;;;18.00;90.70;;;;;;4967414;28;20462;-72
2021/07/13 02:18:12;;;;;;;4.20;2.97;;;17.90;90.80;;;;;;4953666;28;20058;-71
2021/07/13 02:20:39;;;;;;;3.88;2.65;;;17.90;91.00;;;;;;4952627;28;20489;-72
2021/07/13 02:23:06;;;;;;;6.97;3.05;;;17.90;90.90;;;;;;4970970;28;20438;-73
2021/07/13 02:25:33;;;;;;;2.95;2.47;;;17.90;90.80;;;;;;4954782;28;20047;-71
2021/07/13 02:28:16;;;;;;;3.63;2.90;;;17.90;90.90;;;;;;4970106;28;20430;-72
2021/07/13 02:30:47;;;;;;;3.45;2.70;;;17.90;90.90;;;;;;4954685;28;20475;-72
2021/07/13 02:33:23;;;;;;;4.18;2.97;;;17.90;90.90;;;;;;4951698;28;20041;-73
2021/07/13 02:35:55;;;;;;;3.95;3.10;;;18.00;90.90;;;;;;4969224;28;20578;-72
2021/07/13 02:38:22;;;;;;;5.57;2.97;;;17.90;91.10;;;;;;4964494;28;20031;-71
2021/07/13 02:40:49;;;;;;;4.18;3.10;;;17.90;91.20;;;;;;4968366;28;20031;-72
2021/07/13 02:43:16;;;;;;;4.43;3.25;;;17.90;91.20;;;;;;4953387;28;20513;-72
2021/07/13 02:45:44;;;;;;;4.32;3.22;;;18.00;91.10;;;;;;4968995;28;20031;-73
2021/07/13 02:48:13;;;;;;;4.10;2.83;;;18.00;91.20;;;;;;4970655;28;20025;-72
2021/07/13 02:50:41;;;;;;;5.25;2.88;;;18.00;91.10;;;;;;4954169;28;20054;-72
2021/07/13 02:53:09;;;;;;;5.50;2.70;;;18.00;91.00;;;;;;4969854;28;20483;-71
2021/07/13 02:55:36;;;;;;;3.00;2.70;;;18.00;90.90;;;;;;4970007;28;20449;-72
2021/07/13 02:58:04;;;;;;;3.55;3.25;;;18.00;91.00;;;;;;4969277;28;20034;-72
2021/07/13 03:00:32;;;;;;;3.22;2.92;;;18.00;91.00;;;;;;4969705;28;20027;-73
2021/07/13 03:02:58;;;;;;;3.63;2.90;;;18.00;90.80;;;;;;4968869;28;20545;-72
2021/07/13 03:05:25;;;;;;;3.58;2.90;;;18.00;90.70;;;;;;4956780;28;20109;-71
2021/07/13 03:07:52;;;;;;;8.30;2.90;;;18.00;90.80;;;;;;4954781;28;20057;-72
2021/07/13 03:10:23;;;;;;;3.30;3.00;;;18.00;90.90;;;;;;4966785;28;20019;-71
2021/07/13 03:12:51;;;;;;;5.20;3.10;;;17.90;91.10;;;;;;4953656;28;20027;-72
2021/07/13 03:15:20;;;;;;;4.35;2.85;;;17.90;91.10;;;;;;4953460;28;20053;-72
2021/07/13 03:17:46;;;;;;;3.95;2.83;;;17.90;90.90;;;;;;4969683;28;20038;-72
2021/07/13 03:20:12;;;;;;;3.72;2.92;;;17.90;90.90;;;;;;4968192;28;20529;-71
2021/07/13 03:22:45;;;;;;;5.50;2.75;;;17.90;90.90;;;;;;4955163;28;20516;-71
2021/07/13 03:25:16;;;;;;;3.97;2.90;;;17.90;90.80;;;;;;4968626;28;20035;-72
2021/07/13 03:27:42;;;;;;;3.25;2.63;;;17.90;90.80;;;;;;4967519;28;20022;-72
2021/07/13 03:30:09;;;;;;;3.33;3.03;;;17.90;91.00;;;;;;4951095;28;20537;-71
2021/07/13 03:32:36;;;;;;;3.63;3.10;;;17.90;90.70;;;;;;4968573;28;20081;-72
2021/07/13 03:35:03;;;;;;;3.45;2.80;;;17.90;90.80;;;;;;4967785;28;20022;-71
2021/07/13 03:37:30;;;;;;;3.23;2.93;;;17.80;90.90;;;;;;4970006;28;20086;-72
2021/07/13 03:39:57;;;;;;;4.10;2.88;;;17.80;90.90;;;;;;4968719;28;20808;-72
2021/07/13 03:42:24;;;;;;;3.90;3.13;;;17.80;90.90;;;;;;4970071;28;20030;-73
2021/07/13 03:44:50;;;;;;;3.78;2.92;;;17.80;90.80;;;;;;4968236;28;20019;-72
2021/07/13 03:47:18;;;;;;;5.40;2.80;;;17.80;90.60;;;;;;4951231;28;20027;-73
2021/07/13 03:49:46;;;;;;;4.47;3.00;;;17.90;90.60;;;;;;4967715;28;20390;-72
2021/07/13 03:52:13;;;;;;;;;;;17.80;90.70;;;;;;4951654;28;20026;-72
2021/07/13 03:54:40;;;;;;;4.47;2.63;;;17.80;90.50;;;;;;4952101;28;19917;-72
2021/07/13 03:57:06;;;;;;;5.47;2.93;;;17.80;90.20;;;;;;4966882;28;20035;-72
2021/07/13 03:59:32;;;;;;;4.82;2.78;;;17.80;90.30;;;;;;4968500;28;20106;-71
2021/07/13 04:01:58;;;;;;;5.80;3.15;;;17.80;90.10;;;;;;4968001;28;20031;-73
2021/07/13 04:04:24;;;;;;;3.30;2.58;;;17.80;90.20;;;;;;4967458;28;20035;-73
2021/07/13 04:06:50;;;;;;;3.00;2.70;;;17.80;90.10;;;;;;4951139;28;20482;-73
2021/07/13 04:09:16;;;;;;;5.10;3.00;;;17.70;90.30;;;;;;4950516;28;20501;-72
2021/07/13 04:11:42;;;;;;;5.60;3.10;;;17.70;90.60;;;;;;4969357;28;20035;-72
2021/07/13 04:14:08;;;;;;;3.92;3.35;;;17.60;90.50;;;;;;4967873;28;20042;-72
2021/07/13 04:16:34;;;;;;;5.75;3.05;;;17.60;90.80;;;;;;4968331;28;20035;-72
2021/07/13 04:19:00;;;;;;;5.63;2.95;;;17.60;90.90;;;;;;4951197;28;20625;-72
2021/07/13 04:21:26;;;;;;;6.35;3.47;;;17.60;91.00;;;;;;4954237;28;20034;-72
2021/07/13 04:23:52;;;;;;;5.68;3.55;;;17.60;90.90;;;;;;4965593;28;20050;-72
2021/07/13 04:26:17;;;;;;;4.88;3.25;;;17.60;90.90;;;;;;4961085;28;20528;-73
2021/07/13 04:28:43;;;;;;;5.32;3.28;;;17.60;90.90;;;;;;4948165;28;20720;-73
2021/07/13 04:31:09;;;;;;;5.25;3.78;;;17.70;91.00;;;;;;4965205;28;20053;-73
2021/07/13 04:33:35;;;;;;;4.00;3.60;;;17.60;91.20;;;;;;4967037;28;20038;-73
2021/07/13 04:36:01;;;;;;;5.18;3.90;;;17.60;91.30;;;;;;4967598;28;20033;-73
2021/07/13 04:38:27;;;;;;;6.32;3.90;;;17.70;91.20;;;;;;4950664;28;20069;-72
2021/07/13 04:40:53;;;;;;;4.88;3.78;;;17.60;91.50;;;;;;4967716;28;20041;-72
2021/07/13 04:43:19;;;;;;;6.22;3.90;;;17.60;91.70;;;;;;4966782;28;20105;-72
2021/07/13 04:45:45;;;;;;;4.50;4.05;;;17.70;91.20;;;;;;4967431;28;20051;-73
2021/07/13 04:48:11;;;;;;;5.03;4.10;;;17.70;91.10;;;;;;4968289;28;20031;-73
2021/07/13 04:50:36;;;;;;;7.28;3.88;;;17.80;90.90;;;;;;4967355;28;20046;-73
2021/07/13 04:53:03;;;;;;;7.00;4.32;;;17.80;90.90;;;;;;4968650;28;20038;-72
2021/07/13 04:55:29;;;;;;;6.07;4.28;;;17.80;91.10;;;;;;4954381;28;20026;-73
2021/07/13 04:58:01;;;;;;;5.43;4.18;;;17.90;91.50;;;;;;4967765;28;20027;-73
2021/07/13 05:00:27;;;;;;;4.65;3.88;;;17.90;91.20;;;;;;4965206;28;20102;-73
2021/07/13 05:02:53;;;;;;;5.35;3.92;;;17.90;91.10;;;;;;4966783;28;20169;-72
2021/07/13 05:05:19;;;;;;;7.53;4.43;;;17.90;91.20;;;;;;4964819;28;20025;-72
2021/07/13 05:07:45;;;;;;;6.80;4.22;;;18.00;91.00;;;;;;4950671;28;20039;-72
2021/07/13 05:10:12;;;;;;;9.73;4.70;;;18.00;91.30;;;;;;4968108;28;21584;-73
2021/07/13 05:12:39;;;;;;;6.20;4.33;;;18.10;91.20;;;;;;4966539;28;20033;-73
2021/07/13 05:15:07;;;;;;;7.18;4.50;;;18.00;90.80;;;;;;4965316;28;20027;-72
2021/07/13 05:17:33;;;;;;;6.45;4.10;;;18.10;90.80;;;;;;4966715;28;20707;-72
2021/07/13 05:19:59;;;;;;;9.43;4.60;;;18.10;90.80;;;;;;4948461;28;20031;-72
2021/07/13 05:22:25;;;;;;;4.85;4.13;;;18.20;90.70;;;;;;4966285;28;20110;-72
2021/07/13 05:24:51;;;;;;;4.63;4.07;;;18.30;90.60;;;;;;4966875;28;20565;-72
2021/07/13 05:27:17;;;;;;;4.28;3.53;;;18.30;91.00;;;;;;4967658;28;20038;-73
2021/07/13 05:29:43;;;;;;;5.72;3.78;;;18.20;91.10;;;;;;4967425;28;20367;-73
2021/07/13 05:32:09;;;;;;;4.15;3.75;;;18.30;91.00;;;;;;4967361;28;20145;-72
2021/07/13 05:34:35;;;;;;;4.88;3.83;;;18.30;90.90;;;;;;4949401;28;20019;-72
2021/07/13 05:37:02;;;;;;;6.88;5.32;;;18.30;90.70;;;;;;4967681;28;20689;-71
2021/07/13 05:39:28;;;;;;;5.15;4.03;;;18.30;90.90;;;;;;4967283;28;20031;-72
2021/07/13 05:41:55;;;;;;;4.28;3.78;;;18.30;90.90;;;;;;4966847;28;20081;-73
2021/07/13 05:44:21;;;;;;;6.97;4.55;;;18.40;90.80;;;;;;4966281;28;20474;-73
2021/07/13 05:46:47;;;;;;;5.78;4.35;;;18.40;90.60;;;;;;4953801;28;20494;-72
2021/07/13 05:49:12;;;;;;;5.65;4.32;;;18.40;90.50;;;;;;4967686;28;20026;-72
2021/07/13 05:51:38;;;;;;;8.05;4.70;;;18.40;90.40;;;;;;4967707;28;20110;-72
2021/07/13 05:54:04;;;;;;;5.65;4.07;;;18.40;90.40;;;;;;4967256;28;20037;-73
2021/07/13 05:56:30;;;;;;;5.70;4.35;;;18.50;90.30;;;;;;4967502;28;20597;-71
2021/07/13 05:58:56;;;;;;;6.72;4.57;;;18.50;90.40;;;;;;4965043;28;20046;-72
2021/07/13 06:01:22;;;;;;;6.78;4.28;;;18.60;90.60;;;;;;4966912;28;20038;-73
2021/07/13 06:03:48;;;;;;;6.38;4.40;;;18.60;90.40;;;;;;4966529;28;20084;-73
2021/07/13 06:06:14;;;;;;;6.40;4.50;;;18.60;90.60;;;;;;4950027;28;20023;-72
2021/07/13 06:08:40;;;;;;;6.32;3.65;;;18.70;90.30;;;;;;4965558;28;20037;-72
2021/07/13 06:11:06;;;;;;;5.72;4.35;;;18.70;90.40;;;;;;4966440;28;20634;-71
2021/07/13 06:13:32;;;;;;;4.32;3.70;;;18.70;90.00;;;;;;4966913;28;20034;-72
2021/07/13 06:15:58;;;;;;;5.68;4.00;;;18.70;90.40;;;;;;4952338;28;20723;-72
2021/07/13 06:18:23;;;;;;;5.60;4.43;;;18.70;90.00;;;;;;4969763;28;20023;-71
2021/07/13 06:20:49;;;;;;;5.65;4.15;;;18.60;90.10;;;;;;4971463;28;20104;-73
2021/07/13 06:23:15;;;;;;;5.03;3.97;;;18.60;90.20;;;;;;4969472;28;20117;-72
2021/07/13 06:25:42;;;;;;;6.03;4.22;;;18.60;90.30;;;;;;4967335;28;20042;-73
2021/07/13 06:28:08;;;;;;;5.78;4.10;;;18.70;90.40;;;;;;4970814;28;20030;-72
2021/07/13 06:30:35;;;;;;;5.13;4.35;;;18.70;90.00;;;;;;4969761;28;20019;-73
2021/07/13 06:33:01;;;;;;;6.85;4.60;;;18.80;89.80;;;;;;4954420;28;20039;-73
2021/07/13 06:35:27;;;;;;;4.85;4.18;;;18.80;90.00;;;;;;4968947;28;20035;-73
2021/07/13 06:37:53;;;;;;;7.20;4.45;;;18.80;89.20;;;;;;4952492;28;20037;-72
2021/07/13 06:40:19;;;;;;;7.47;4.88;;;18.90;89.60;;;;;;4969507;28;20055;-72
2021/07/13 06:42:45;;;;;;;10.52;4.82;;;18.90;89.30;;;;;;4970238;28;20038;-73
2021/07/13 06:45:11;;;;;;;7.32;4.65;;;18.90;89.30;;;;;;4952264;28;20022;-73
2021/07/13 06:47:37;;;;;;;6.95;5.20;;;18.90;90.00;;;;;;4970266;28;20034;-73
2021/07/13 06:50:05;;;;;;;6.72;4.88;;;18.90;89.90;;;;;;4969971;28;20110;-73
2021/07/13 06:52:31;;;;;;;7.28;5.03;;;18.90;90.10;;;;;;4970641;28;20030;-73
2021/07/13 06:54:57;;;;;;;7.38;6.40;;;18.90;90.10;;;;;;4953044;28;20035;-73
2021/07/13 06:57:23;;;;;;;6.28;5.45;;;18.90;90.20;;;;;;4968710;28;20490;-72
2021/07/13 06:59:49;;;;;;;6.30;5.15;;;19.00;90.00;;;;;;4952831;28;20034;-73
2021/07/13 07:02:16;;;;;;;10.85;5.22;;;19.00;90.30;;;;;;4969075;28;20039;-72
2021/07/13 07:04:41;;;;;;;7.25;5.00;;;19.00;90.30;;;;;;4969997;28;20022;-72
2021/07/13 07:07:07;;;;;;;7.07;5.90;;;19.00;89.20;;;;;;4968017;28;20027;-73
2021/07/13 07:09:33;;;;;;;9.85;5.57;;;19.00;89.10;;;;;;4970110;28;20026;-74
2021/07/13 07:11:59;;;;;;;5.95;5.00;;;19.00;90.00;;;;;;4968229;28;20035;-72
2021/07/13 07:14:25;;;;;;;9.57;5.80;;;19.00;90.30;;;;;;4968259;28;20077;-73
2021/07/13 07:16:51;;;;;;;6.70;4.95;;;19.00;90.30;;;;;;4968027;28;20345;-72
2021/07/13 07:19:17;;;;;;;7.07;5.47;;;19.10;90.40;;;;;;4954737;28;20085;-73
2021/07/13 07:21:43;;;;;;;7.85;5.18;;;19.10;90.40;;;;;;4969253;28;20035;-72
2021/07/13 07:24:08;;;;;;;6.78;5.38;;;19.20;90.60;;;;;;4969029;28;20041;-73
2021/07/13 07:26:34;;;;;;;7.20;5.78;;;19.20;89.30;;;;;;4969372;28;20031;-73
2021/07/13 07:29:00;;;;;;;7.35;5.90;;;19.20;90.00;;;;;;4949966;28;20044;-73
2021/07/13 07:31:26;;;;;;;7.35;5.50;;;19.20;90.00;;;;;;4949272;28;20023;-73
2021/07/13 07:33:52;;;;;;;6.88;5.55;;;19.20;89.50;;;;;;4951717;28;20093;-71
2021/07/13 07:36:18;;;;;;;6.32;5.38;;;19.20;90.00;;;;;;4963138;28;20117;-72
2021/07/13 07:38:44;;;;;;;10.90;6.25;;;19.20;89.70;;;;;;4970026;28;20054;-72
2021/07/13 07:41:09;;;;;;;8.13;5.97;;;19.20;90.00;;;;;;4964512;28;20089;-72
2021/07/13 07:43:35;;;;;;;8.07;5.78;;;19.20;90.00;;;;;;4968015;28;20054;-73
2021/07/13 07:46:01;;;;;;;8.10;6.40;;;19.20;90.10;;;;;;4968999;28;20051;-72
2021/07/13 07:48:27;;;;;;;5.97;5.38;;;19.20;89.30;;;;;;4967687;28;20035;-73
2021/07/13 07:50:53;;;;;;;9.88;5.63;;;19.20;90.00;;;;;;4949569;28;20022;-73
2021/07/13 07:53:19;;;;;;;9.85;6.00;;;19.20;90.00;;;;;;4966902;28;20026;-72
2021/07/13 07:55:45;;;;;;;7.53;6.25;;;19.30;90.30;;;;;;4967476;28;20607;-73
2021/07/13 07:58:10;;;;;;;9.70;6.80;;;19.30;90.40;;;;;;4969461;28;20109;-72
2021/07/13 08:00:37;;;;;;;8.68;6.70;;;19.30;89.60;;;;;;4966965;28;20853;-73
2021/07/13 08:03:03;;;;;;;11.18;6.72;;;19.30;90.10;;;;;;4951724;28;20034;-73
2021/07/13 08:05:30;;;;;;;7.78;6.90;;;19.40;90.50;;;;;;4968832;28;20650;-73
2021/07/13 08:07:56;;;;;;;8.75;6.88;;;19.40;90.30;;;;;;4968673;28;20034;-71
2021/07/13 08:10:22;;;;;;;7.65;6.60;;;19.40;90.50;;;;;;4967280;28;20105;-73
2021/07/13 08:12:48;;;;;;;10.73;7.05;;;19.50;90.30;;;;;;4965758;28;20989;-73
2021/07/13 08:15:15;;;;;;;9.18;6.28;;;19.50;90.10;;;;;;4968943;28;20031;-72
2021/07/13 08:17:42;;;;;;;8.90;6.93;;;19.50;90.20;;;;;;4951397;28;20383;-72
2021/07/13 08:20:10;;;;;;;8.02;6.60;;;19.50;89.80;;;;;;4968358;28;20082;-73
2021/07/13 08:22:37;;;;;;;9.45;6.32;;;19.40;89.80;;;;;;4968128;28;20035;-73
2021/07/13 08:25:04;;;;;;;8.38;6.35;;;19.50;90.50;;;;;;4951772;28;20775;-73
2021/07/13 08:27:30;;;;;;;6.25;5.65;;;19.60;90.40;;;;;;4951790;28;20114;-72
2021/07/13 08:29:56;;;;;;;10.70;6.47;;;19.60;90.20;;;;;;4968040;28;20106;-72
2021/07/13 08:32:22;;;;;;;7.28;5.65;;;19.60;90.00;;;;;;4951853;28;20165;-73
2021/07/13 08:34:48;;;;;;;6.43;5.30;;;19.60;89.40;;;;;;4968319;28;20688;-72
2021/07/13 08:37:14;;;;;;;7.70;5.18;;;19.60;88.40;;;;;;4951069;28;20027;-72
2021/07/13 08:39:40;;;;;;;8.13;5.22;;;19.50;89.00;;;;;;4968149;28;20037;-72
2021/07/13 08:42:06;;;;;;;7.88;5.00;;;19.60;88.80;;;;;;4967608;28;20482;-73
2021/07/13 08:44:33;;;;;;;5.50;4.93;;;19.60;87.40;;;;;;4951195;28;20046;-72
2021/07/13 08:46:59;;;;;;;6.70;4.83;;;19.60;88.00;;;;;;4965304;28;20090;-73
2021/07/13 08:49:27;;;;;;;5.25;4.57;;;19.60;87.70;;;;;;4968074;28;20369;-73
2021/07/13 08:51:53;;;;;;;6.18;4.55;;;19.70;87.80;;;;;;4954876;28;20027;-73
2021/07/13 08:54:19;;;;;;;5.07;4.57;;;19.70;88.60;;;;;;4951598;28;20042;-72
2021/07/13 08:56:44;;;;;;;5.25;4.75;;;19.80;89.60;;;;;;4968653;28;20102;-74
2021/07/13 08:59:10;;;;;;;6.03;4.68;;;19.90;87.20;;;;;;4968978;28;20026;-73
2021/07/13 09:01:36;;;;;;;6.03;5.15;;;19.90;85.50;;;;;;4969943;28;20121;-74
2021/07/13 09:04:05;;;;;;;5.57;4.85;;;19.90;86.60;;;;;;4951457;28;20112;-71
2021/07/13 09:06:57;;;;;;;6.78;5.00;;;19.90;85.70;;;;;;4967838;28;20050;-72
2021/07/13 09:09:32;;;;;;;6.43;5.28;;;19.90;85.60;;;;;;4948839;28;20023;-72
2021/07/13 09:12:12;;;;;;;6.70;4.45;;;20.00;86.00;;;;;;4955625;28;20497;-72
2021/07/13 09:14:55;;;;;;;5.63;4.88;;;19.90;84.80;;;;;;4966935;28;20023;-73
2021/07/13 09:17:43;;;;;;;5.90;4.80;;;20.00;85.50;;;;;;4952618;28;20030;-72
2021/07/13 09:20:22;;;;;;;6.43;4.95;;;20.00;85.90;;;;;;4950373;28;20162;-72
2021/07/13 09:22:52;;;;;;;6.22;4.85;;;20.10;86.30;;;;;;4948015;28;20450;-71
2021/07/13 09:25:34;;;;;;;6.05;5.15;;;20.20;86.10;;;;;;4968148;28;20751;-73
2021/07/13 09:28:16;;;;;;;7.07;5.80;;;20.10;85.40;;;;;;4968697;28;20027;-73
2021/07/13 09:30:59;;;;;;;8.20;5.57;;;20.10;84.40;;;;;;4949328;28;20090;-73
2021/07/13 09:33:33;;;;;;;5.72;5.22;;;20.00;83.80;;;;;;4968060;28;20027;-73
2021/07/13 09:36:07;;;;;;;7.95;6.00;;;19.90;84.20;;;;;;4950424;28;20159;-72
2021/07/13 09:38:48;;;;;;;5.20;4.03;;;19.90;83.90;;;;;;4965882;28;20034;-72
2021/07/13 09:41:25;;;;;;;1.83;1.73;;;19.90;84.10;;;;;;4967324;28;20081;-73
2021/07/13 09:43:52;;;;;;;3.30;1.15;;;19.50;81.20;;;;;;4947269;28;20027;-72
2021/07/13 09:46:26;;;;;;;2.15;1.00;;;19.20;82.00;;;;;;4968227;28;20031;-72
2021/07/13 09:49:11;;;;;;;0.77;0.77;;;18.90;82.30;;;;;;4964703;28;20489;-72
2021/07/13 09:51:40;;;;;;;0.80;0.80;;;18.70;82.10;;;;;;4970406;28;20117;-72
2021/07/13 09:54:42;;;;;;;0.77;0.77;;;18.50;82.00;;;;;;4961071;28;20027;-72
2021/07/13 09:57:17;;;;;;;0.52;0.52;;;18.50;82.80;;;;;;4956375;28;20684;-71
2021/07/13 09:59:47;;;;;;;0.75;0.63;;;18.30;82.80;;;;;;4970366;28;20034;-72
2021/07/13 10:02:18;;;;;;;0.60;0.60;;;18.20;81.90;;;;;;4958660;28;20122;-72
2021/07/13 10:04:46;;;;;;;3.58;0.80;;;18.00;82.10;;;;;;4954029;28;20038;-73
2021/07/13 10:07:15;;;;;;;;;;;17.90;82.50;;;;;;4971053;28;20058;-73
2021/07/13 10:09:45;;;;;;;0.50;0.50;;;17.80;82.60;;;;;;4970107;28;20014;-72
2021/07/13 10:12:14;;;;;;;1.17;0.60;;;17.70;83.00;;;;;;4971776;28;20038;-73
2021/07/13 10:14:45;;;;;;;0.70;0.70;;;17.60;83.80;;;;;;4971463;28;20030;-73
2021/07/13 10:17:12;;;;;;;0.45;0.45;;;17.50;83.80;;;;;;4967802;28;20526;-73
2021/07/13 10:19:48;;;;;;;0.50;0.50;;;17.40;84.30;;;;;;4956251;28;20031;-73
2021/07/13 10:22:15;;;;;;;1.75;0.60;;;17.30;84.70;;;;;;4957721;28;20044;-73
2021/07/13 10:24:44;;;;;;;1.70;0.88;;;17.20;85.30;;;;;;4969786;28;20061;-72
2021/07/13 10:27:24;;;;;;;1.48;0.77;;;17.20;85.40;;;;;;4953689;28;20041;-72
2021/07/13 10:29:49;;;;;;;1.00;1.00;;;17.10;84.40;;;;;;4950729;28;20031;-73
2021/07/13 10:32:18;;;;;;;0.90;0.80;;;17.10;85.20;;;;;;4969434;28;20042;-72
2021/07/13 10:34:53;;;;;;;1.58;0.80;;;17.10;85.50;;;;;;4968391;28;20022;-73
2021/07/13 10:37:28;;;;;;;1.55;0.90;;;17.00;85.60;;;;;;4952666;28;20386;-73
2021/07/13 10:40:00;;;;;;;2.53;0.90;;;16.90;85.80;;;;;;4968090;28;20058;-73
2021/07/13 10:42:41;;;;;;;1.27;0.80;;;16.80;86.50;;;;;;4967737;28;20144;-73
2021/07/13 10:45:22;;;;;;;0.82;0.82;;;16.80;86.40;;;;;;4965679;28;20029;-72
2021/07/13 10:48:15;;;;;;;0.82;0.82;;;16.70;86.30;;;;;;4953338;28;20023;-72
2021/07/13 10:50:46;;;;;;;1.02;0.93;;;16.70;86.70;;;;;;4970252;28;20034;-73
2021/07/13 10:53:38;;;;;;;0.88;0.88;;;16.60;86.90;;;;;;4970815;28;20035;-73
2021/07/13 10:56:06;;;;;;;1.83;0.93;;;16.50;87.00;;;;;;4970177;28;20620;-73
2021/07/13 10:58:35;;;;;;;2.30;0.70;;;16.50;87.70;;;;;;4954037;28;20777;-73
2021/07/13 11:01:09;;;;;;;2.67;0.77;;;16.40;87.00;;;;;;4967636;28;20123;-73
2021/07/13 11:03:37;;;;;;;0.60;0.60;;;16.30;86.40;;;;;;4967447;28;20031;-73
2021/07/13 11:06:11;;;;;;;0.50;0.50;;;16.30;87.20;;;;;;4969673;28;20043;-73
2021/07/13 11:08:52;;;;;;;0.60;0.60;;;16.10;87.20;;;;;;4970006;28;20105;-72
2021/07/13 11:11:20;;;;;;;1.70;0.57;;;16.00;87.30;;;;;;4968229;28;20042;-72
2021/07/13 11:13:47;;;;;;;0.40;0.40;;;16.00;87.40;;;;;;4953244;28;20039;-73
2021/07/13 11:16:14;;;;;;;0.50;0.50;;;16.00;88.30;;;;;;4970610;28;20038;-72
2021/07/13 11:18:41;;;;;;;0.35;0.35;;;16.00;88.30;;;;;;4954099;28;20035;-72
2021/07/13 11:21:13;;;;;;;0.30;0.30;;;16.00;87.80;;;;;;4969818;28;20057;-72
2021/07/13 11:23:38;;;;;;;0.30;0.30;;;15.80;87.90;;;;;;4970887;28;20077;-71
2021/07/13 11:26:05;;;;;;;0.30;0.30;;;15.80;88.30;;;;;;4970643;28;20483;-73
2021/07/13 11:28:32;;;;;;;0.47;0.40;;;15.90;88.50;;;;;;4951836;28;20436;-73
2021/07/13 11:31:07;;;;;;;0.32;0.32;;;15.90;88.10;;;;;;4935127;28;20034;-73
2021/07/13 11:33:33;;;;;;;0.38;0.38;;;15.90;88.70;;;;;;4954242;28;20074;-73
2021/07/13 11:36:00;;;;;;;0.95;0.45;;;15.90;88.30;;;;;;4974097;28;20050;-73
2021/07/13 11:38:28;;;;;;;0.20;0.20;;;15.90;88.40;;;;;;4972011;28;21511;-73
2021/07/13 11:41:15;;;;;;;1.45;0.20;;;15.80;87.90;;;;;;4973041;28;20042;-71
2021/07/13 11:43:43;;;;;;;0.82;0.32;;;15.80;88.20;;;;;;4970922;28;20093;-72
2021/07/13 11:46:19;;;;;;;0.57;0.40;;;15.70;88.60;;;;;;4967655;28;20031;-72
2021/07/13 11:49:09;;;;;;;0.32;0.32;;;15.70;88.80;;;;;;4952464;28;20035;-72
2021/07/13 11:51:42;;;;;;;2.40;1.33;;;15.70;89.50;;;;;;4969399;28;20027;-72
2021/07/13 11:54:13;;;;;;;1.05;0.30;;;15.70;89.00;;;;;;4970206;28;20035;-72
2021/07/13 11:56:43;;;;;;;0.52;0.20;;;15.60;89.50;;;;;;4966362;28;20038;-73
2021/07/13 11:59:09;;;;;;;1.70;0.35;;;15.50;90.00;;;;;;4952658;28;20041;-73
2021/07/13 12:01:36;;;;;;;0.20;0.20;;;15.50;90.20;;;;;;4970058;28;20039;-73
2021/07/13 12:04:10;;;;;;;0.23;0.20;;;15.50;90.10;;;;;;4968945;28;20035;-72
2021/07/13 12:06:37;;;;;;;0.40;0.40;;;15.50;90.30;;;;;;4954447;28;20113;-73
2021/07/13 12:09:14;;;;;;;0.35;0.30;;;15.40;90.30;;;;;;4969979;28;20054;-72
2021/07/13 12:11:46;;;;;;;1.25;0.40;;;15.50;90.30;;;;;;4969247;28;20046;-73
2021/07/13 12:14:17;;;;;;;2.63;0.47;;;15.40;90.90;;;;;;4971537;28;20093;-71
2021/07/13 12:16:44;;;;;;;0.20;0.20;;;15.40;90.80;;;;;;4967456;28;20038;-72
2021/07/13 12:19:16;;;;;;;0.40;0.40;;;15.40;90.80;;;;;;4955430;28;20061;-72
2021/07/13 12:21:47;;;;;;;0.70;0.30;;;15.30;91.00;;;;;;4951178;28;20030;-71
2021/07/13 12:24:19;;;;;;;0.50;0.30;;;15.30;91.00;;;;;;4948380;28;20040;-72
2021/07/13 12:26:57;;;;;;;0.38;0.35;;;15.30;91.10;;;;;;4970420;28;20019;-71
2021/07/13 12:29:24;;;;;;;0.50;0.50;;;15.30;91.30;;;;;;4950943;28;20054;-71
2021/07/13 12:31:55;;;;;;;0.57;0.47;;;15.20;91.50;;;;;;4952882;28;20027;-73
2021/07/13 12:34:28;;;;;;;0.47;0.47;;;15.20;91.40;;;;;;4964139;28;20030;-72
2021/07/13 12:37:05;;;;;;;2.33;0.60;;;15.30;91.50;;;;;;4968803;28;20050;-74
2021/07/13 12:39:31;;;;;;;1.20;0.30;;;15.30;91.60;;;;;;4969215;28;20093;-73
2021/07/13 12:41:57;;;;;;;0.30;0.30;;;15.30;91.60;;;;;;4948744;28;20030;-71
2021/07/13 12:44:39;;;;;;;0.60;0.50;;;15.30;91.60;;;;;;4967946;28;20050;-72
2021/07/13 12:47:29;;;;;;;0.30;0.30;;;15.30;92.00;;;;;;4967824;28;20027;-72
2021/07/13 12:50:10;;;;;;;0.57;0.55;;;15.30;92.20;;;;;;4968624;28;20023;-73
2021/07/13 12:52:40;;;;;;;0.75;0.45;;;15.30;92.20;;;;;;4964795;28;20027;-73
2021/07/13 12:55:11;;;;;;;0.60;0.50;;;15.30;92.20;;;;;;4968711;28;20031;-72
2021/07/13 12:57:45;;;;;;;0.40;0.40;;;15.30;92.40;;;;;;4968848;28;20894;-73